Bookmark and Share
Track history (hours):
 

Atlantic Aquarius

Last reported at 2014-Apr-04 01:33 UTC. Time now 2014-Apr-18 20:46 UTC.
Position S 32°43' W 071°37'.
Warning: this ship's position is 14 days out of date.

Length 183 m; draft 9.1 m.

Type: Tanker. MMSI: 477071400.

NotesDate/timePositionNaut miles runAvg speedWind from/ knotsBaromVisibWave heightAir tempDewpointWater temp
2014-Apr-04 01:33S 32°43' W 071°37'7 0.7
2014-Apr-03 16:21S 32°46' W 071°30'0 0.2
2014-Apr-03 15:33S 32°46' W 071°31'1 1.0
2014-Apr-03 14:33S 32°45' W 071°30'0 0.0
2014-Apr-02 20:32S 32°45' W 071°30'0 0.0
2014-Apr-02 19:32S 32°45' W 071°30'0 0.0
2014-Apr-02 18:20S 32°45' W 071°30'0 0.1
2014-Apr-02 17:32S 32°45' W 071°30'0 0.0
2014-Apr-02 16:29S 32°45' W 071°30'0 0.1
2014-Apr-02 15:29S 32°45' W 071°30'0 0.2
2014-Apr-02 14:32S 32°45' W 071°30'2 1.6
2014-Apr-02 13:33S 32°45' W 071°32'6 5.9
2014-Apr-02 12:34S 32°45' W 071°39'8 0.4
2014-Apr-01 19:24S 32°45' W 071°30'0 0.0
2014-Apr-01 18:33S 32°46' W 071°30'0 0.1
2014-Apr-01 17:30S 32°45' W 071°30'1 1.3
2014-Apr-01 16:31S 32°46' W 071°31'0 0.1
2014-Apr-01 15:19S 32°46' W 071°31'0 0.0
2014-Apr-01 14:25S 32°46' W 071°31'0 0.1
2014-Apr-01 13:25S 32°46' W 071°31'0 0.1
2014-Apr-01 12:31S 32°46' W 071°31'0 0.0
2014-Mar-31 11:22S 32°46' W 071°31'0 0.0
2014-Mar-31 10:31S 32°46' W 071°31'0 0.0
2014-Mar-31 08:25S 32°46' W 071°31'0 0.0
2014-Mar-31 06:16S 32°46' W 071°31'0 0.0
2014-Mar-31 01:31S 32°46' W 071°31'0 0.0
2014-Mar-31 00:28S 32°46' W 071°31'0 0.1
2014-Mar-30 23:28S 32°46' W 071°31'0 0.0
2014-Mar-30 22:31S 32°46' W 071°31'0 0.0
2014-Mar-30 21:31S 32°46' W 071°31'0 0.0
2014-Mar-30 20:31S 32°46' W 071°31'0 0.0
2014-Mar-30 19:31S 32°46' W 071°31'0 0.0
2014-Mar-30 18:31S 32°46' W 071°31'0 0.0
2014-Mar-30 17:28S 32°46' W 071°31'0 0.0
2014-Mar-30 16:31S 32°46' W 071°31'0 0.0
2014-Mar-30 15:31S 32°46' W 071°31'0 0.0
2014-Mar-30 14:31S 32°46' W 071°31'0 0.0
2014-Mar-30 13:31S 32°46' W 071°31'0 0.0
2014-Mar-30 12:31S 32°46' W 071°31'0 0.0
2014-Mar-30 11:31S 32°46' W 071°31'0 0.0
2014-Mar-30 10:31S 32°46' W 071°31'0 0.0
2014-Mar-30 09:31S 32°46' W 071°31'0 0.0
2014-Mar-30 08:31S 32°46' W 071°31'0 0.0
2014-Mar-30 07:25S 32°46' W 071°31'0 0.0
2014-Mar-30 06:16S 32°46' W 071°31'0 0.0
2014-Mar-30 05:13S 32°46' W 071°31'0 0.2
2014-Mar-30 04:31S 32°46' W 071°31'0 0.0
2014-Mar-29 22:31S 32°46' W 071°31'0 0.0
2014-Mar-29 21:31S 32°46' W 071°31'0 0.0
2014-Mar-29 20:31S 32°46' W 071°31'0 0.0
2014-Mar-29 19:31S 32°46' W 071°31'0 0.0
2014-Mar-29 18:31S 32°46' W 071°31'0 0.0
2014-Mar-29 17:31S 32°46' W 071°31'0 0.0
2014-Mar-29 16:19S 32°46' W 071°31'0 0.1
2014-Mar-29 15:31S 32°46' W 071°31'0 0.0
2014-Mar-29 14:31S 32°46' W 071°31'0 0.1
2014-Mar-29 13:31S 32°46' W 071°31'1 1.3
2014-Mar-29 12:33S 32°45' W 071°32'3 3.2
2014-Mar-29 11:33S 32°45' W 071°36'  

Dump ship's entire track history

sailing weather and tide predictions

Atlantic Aquarius — VRDX6 — position and weather